Time;durP1;ratioP1;P1;durP2;ratioP2;P2;SDS_P1;SDS_P2;PMS_P1;PMS_P2;Temp;Humidity;BMP_temperature;BMP_pressure;BME280_temperature;BME280_humidity;BME280_pressure;Samples;Min_cycle;Max_cycle;Signal;HPM_P1;HPM_P2
2023/07/10 00:01:27;;;;;;;14.88;6.97;;;;;;;18.34;100.00;100657.06;5115540;28;20027;-79
2023/07/10 00:03:58;;;;;;;10.60;6.30;;;;;;;18.29;100.00;100660.78;5116857;28;20032;-78
2023/07/10 00:06:30;;;;;;;10.10;6.50;;;;;;;18.31;100.00;100663.94;5116410;28;20039;-79
2023/07/10 00:08:56;;;;;;;9.77;6.68;;;;;;;18.28;100.00;100664.97;5115499;28;20051;-78
2023/07/10 00:11:32;;;;;;;10.38;6.32;;;;;;;18.26;100.00;100653.19;5113608;28;20089;-77
2023/07/10 00:13:58;;;;;;;10.18;6.60;;;;;;;18.23;100.00;100665.81;5116486;28;20460;-78
2023/07/10 00:16:37;;;;;;;10.25;7.20;;;;;;;18.20;100.00;100653.22;5115554;28;20033;-78
2023/07/10 00:19:11;;;;;;;13.63;6.50;;;;;;;18.18;100.00;100655.84;5115239;28;20060;-78
2023/07/10 00:21:37;;;;;;;12.55;6.93;;;;;;;18.16;100.00;100660.63;5115748;28;20120;-78
2023/07/10 00:24:07;;;;;;;12.27;6.88;;;;;;;18.14;100.00;100663.25;5116725;28;20081;-77
2023/07/10 00:26:43;;;;;;;12.50;7.07;;;;;;;18.12;100.00;100660.91;5116245;28;20069;-78
2023/07/10 00:29:31;;;;;;;10.48;7.18;;;;;;;18.10;100.00;100665.66;5117114;28;20027;-79
2023/07/10 00:31:58;;;;;;;11.10;7.82;;;;;;;18.06;100.00;100659.38;5116457;28;20073;-79
2023/07/10 00:34:25;;;;;;;13.50;7.70;;;;;;;18.01;100.00;100657.31;5116106;28;20055;-78
2023/07/10 00:36:52;;;;;;;11.13;7.20;;;;;;;18.02;100.00;100664.69;5116949;28;20460;-78
2023/07/10 00:39:26;;;;;;;12.43;7.30;;;;;;;17.97;100.00;100651.81;5099194;28;20028;-79
2023/07/10 00:41:59;;;;;;;9.95;7.22;;;;;;;17.92;100.00;100655.53;5117582;28;20039;-78
2023/07/10 00:44:37;;;;;;;13.95;7.95;;;;;;;17.86;100.00;100649.00;5115970;28;20475;-78
2023/07/10 00:47:25;;;;;;;15.80;7.75;;;;;;;17.80;100.00;100643.25;5115912;28;20034;-77
2023/07/10 00:50:06;;;;;;;11.82;7.30;;;;;;;17.77;100.00;100647.22;5117371;28;20024;-79
2023/07/10 00:52:45;;;;;;;15.50;7.40;;;;;;;17.73;100.00;100646.69;5099555;28;20118;-80
2023/07/10 00:55:32;;;;;;;10.13;7.15;;;;;;;17.69;100.00;100648.31;5116000;28;20027;-80
2023/07/10 00:58:26;;;;;;;9.02;6.78;;;;;;;17.67;100.00;100657.53;5098974;28;20028;-79
2023/07/10 01:01:09;;;;;;;17.15;8.02;;;;;;;17.64;100.00;100655.69;5116981;28;20460;-78
2023/07/10 01:03:44;;;;;;;14.20;7.10;;;;;;;17.62;100.00;100652.56;5115712;28;20051;-78
2023/07/10 01:06:22;;;;;;;18.90;7.80;;;;;;;17.61;100.00;100656.78;5116706;28;20088;-79
2023/07/10 01:09:05;;;;;;;11.32;7.35;;;;;;;17.60;100.00;100646.53;5115519;28;20024;-79
2023/07/10 01:11:34;;;;;;;10.95;7.30;;;;;;;17.57;100.00;100652.59;5114976;28;20100;-79
2023/07/10 01:14:02;;;;;;;13.50;8.00;;;;;;;17.56;100.00;100651.03;5098721;28;20089;-80
2023/07/10 01:16:35;;;;;;;8.70;6.90;;;;;;;17.50;100.00;100645.28;5098352;28;20032;-77
2023/07/10 01:19:16;;;;;;;10.13;6.45;;;;;;;17.42;100.00;100638.47;5117635;28;20024;-78
2023/07/10 01:21:41;;;;;;;9.85;7.07;;;;;;;17.43;100.00;100648.69;5115646;28;20038;-78
2023/07/10 01:24:08;;;;;;;12.30;7.40;;;;;;;17.45;100.00;100637.41;5116811;28;20360;-78
2023/07/10 01:26:43;;;;;;;9.93;7.25;;;;;;;17.39;100.00;100628.75;5115189;28;20176;-79
2023/07/10 01:29:21;;;;;;;10.68;7.20;;;;;;;17.42;100.00;100639.25;5116315;28;20024;-79
2023/07/10 01:31:49;;;;;;;8.52;6.35;;;;;;;17.37;100.00;100642.94;5115371;28;20031;-77
2023/07/10 01:34:17;;;;;;;10.68;7.35;;;;;;;17.31;100.00;100642.19;5097985;28;20035;-78
2023/07/10 01:36:58;;;;;;;10.32;7.30;;;;;;;17.23;100.00;100635.41;5114255;28;20472;-79
2023/07/10 01:39:46;;;;;;;15.05;7.18;;;;;;;17.15;100.00;100636.47;5113645;28;20074;-79
2023/07/10 01:42:12;;;;;;;8.20;7.30;;;;;;;17.10;100.00;100637.28;5096785;28;20027;-78
2023/07/10 01:44:42;;;;;;;11.07;7.45;;;;;;;17.09;100.00;100632.84;5114917;28;20090;-79
2023/07/10 01:47:29;;;;;;;10.55;7.18;;;;;;;16.97;100.00;100641.53;5113438;28;20169;-79
2023/07/10 01:50:13;;;;;;;10.75;7.47;;;;;;;16.84;100.00;100641.31;5114118;28;20472;-78
2023/07/10 01:53:00;;;;;;;10.18;7.38;;;;;;;16.79;100.00;100642.13;5096187;28;20032;-78
2023/07/10 01:55:33;;;;;;;11.70;7.30;;;;;;;16.73;100.00;100644.22;5111684;28;20044;-76
2023/07/10 01:57:58;;;;;;;10.52;7.70;;;;;;;16.74;100.00;100642.13;5113175;28;20075;-76
2023/07/10 02:00:23;;;;;;;15.02;7.40;;;;;;;16.71;100.00;100640.28;5113859;28;20031;-77
2023/07/10 02:02:49;;;;;;;9.60;7.07;;;;;;;16.68;100.00;100633.47;5129235;27;20376;-78
2023/07/10 02:05:17;;;;;;;14.38;7.57;;;;;;;16.75;100.00;100637.91;5114619;28;20024;-78
2023/07/10 02:07:42;;;;;;;10.65;7.38;;;;;;;16.75;100.00;100632.91;5112024;28;20047;-80
2023/07/10 02:10:09;;;;;;;9.63;7.10;;;;;;;16.74;100.00;100628.47;5114243;28;20051;-79
2023/07/10 02:12:36;;;;;;;12.50;7.40;;;;;;;16.73;100.00;100634.78;5115558;28;20118;-78
2023/07/10 02:15:03;;;;;;;8.48;6.85;;;;;;;16.71;100.00;100632.41;5114162;28;20093;-80
2023/07/10 02:17:31;;;;;;;10.88;7.63;;;;;;;16.70;100.00;100632.94;5116228;28;20023;-79
2023/07/10 02:19:57;;;;;;;12.43;7.30;;;;;;;16.67;100.00;100626.13;5115166;28;20380;-79
2023/07/10 02:22:24;;;;;;;9.93;8.13;;;;;;;16.67;100.00;100634.78;5114303;28;20039;-78
2023/07/10 02:24:49;;;;;;;10.23;7.45;;;;;;;16.66;100.00;100633.19;5111304;28;20039;-78
2023/07/10 02:27:15;;;;;;;9.75;7.28;;;;;;;16.67;100.00;100628.22;5115118;28;20027;-79
2023/07/10 02:29:41;;;;;;;14.65;7.80;;;;;;;16.55;100.00;100616.69;5109024;28;20044;-80
2023/07/10 02:32:08;;;;;;;13.98;7.43;;;;;;;16.64;100.00;100630.06;5096648;28;20026;-79
2023/07/10 02:34:34;;;;;;;13.45;7.43;;;;;;;16.64;100.00;100635.06;5114993;28;20034;-78
2023/07/10 02:37:00;;;;;;;9.70;6.93;;;;;;;16.65;100.00;100640.28;5115727;28;20066;-80
2023/07/10 02:39:26;;;;;;;10.10;7.40;;;;;;;16.67;100.00;100634.00;5114897;28;20039;-80
2023/07/10 02:41:52;;;;;;;9.13;7.05;;;;;;;16.66;100.00;100638.97;5114295;28;20042;-79
2023/07/10 02:44:25;;;;;;;9.75;7.43;;;;;;;16.69;100.00;100637.94;5096413;28;20130;-80
2023/07/10 02:46:50;;;;;;;9.73;7.22;;;;;;;16.69;100.00;100648.69;5115076;28;20051;-80
2023/07/10 02:49:15;;;;;;;11.23;7.45;;;;;;;16.70;100.00;100639.47;5114879;28;20490;-79
2023/07/10 02:51:41;;;;;;;12.40;7.95;;;;;;;16.59;100.00;100641.63;5113315;28;20046;-77
2023/07/10 02:54:14;;;;;;;9.52;7.30;;;;;;;16.43;100.00;100638.19;5112061;28;20038;-79
2023/07/10 02:56:40;;;;;;;10.05;7.50;;;;;;;16.39;100.00;100634.78;5113274;28;20054;-78
2023/07/10 02:59:06;;;;;;;9.88;7.13;;;;;;;16.42;100.00;100641.59;5113449;28;20024;-78
2023/07/10 03:01:32;;;;;;;11.38;7.10;;;;;;;16.46;100.00;100636.34;5113406;28;20034;-79
2023/07/10 03:03:58;;;;;;;12.40;7.50;;;;;;;16.37;100.00;100623.00;5112477;28;20028;-79
2023/07/10 03:06:32;;;;;;;12.48;7.47;;;;;;;16.52;100.00;100628.47;5113344;28;20062;-79
2023/07/10 03:08:58;;;;;;;13.35;8.35;;;;;;;16.54;100.00;100631.66;5113043;28;20031;-78
2023/07/10 03:11:24;;;;;;;9.23;7.35;;;;;;;16.54;100.00;100638.22;5112506;28;20040;-78
2023/07/10 03:13:52;;;;;;;13.20;7.53;;;;;;;16.55;100.00;100641.88;5114471;28;20028;-78
2023/07/10 03:16:18;;;;;;;9.57;7.38;;;;;;;16.53;100.00;100648.19;5114260;28;20023;-78
2023/07/10 03:18:44;;;;;;;8.52;7.50;;;;;;;16.57;100.00;100635.59;5112813;28;20020;-78
2023/07/10 03:21:24;;;;;;;10.82;8.07;;;;;;;16.52;100.00;100637.91;5114035;28;20028;-79
2023/07/10 03:23:52;;;;;;;8.00;6.50;;;;;;;16.53;100.00;100638.72;5114363;28;20080;-78
2023/07/10 03:26:18;;;;;;;11.13;8.02;;;;;;;16.55;100.00;100644.75;5113006;28;20119;-78
2023/07/10 03:28:44;;;;;;;9.30;7.90;;;;;;;16.60;100.00;100637.44;5112786;28;20051;-79
2023/07/10 03:31:10;;;;;;;10.02;7.57;;;;;;;16.61;100.00;100636.09;5113046;28;20091;-79
2023/07/10 03:33:38;;;;;;;11.02;7.82;;;;;;;16.62;100.00;100646.31;5094984;28;20039;-79
2023/07/10 03:36:07;;;;;;;13.90;8.18;;;;;;;16.62;100.00;100641.34;5112870;28;20087;-79
2023/07/10 03:38:33;;;;;;;10.85;8.00;;;;;;;16.71;100.00;100646.84;5114310;28;20043;-79
2023/07/10 03:40:59;;;;;;;11.05;7.40;;;;;;;16.77;100.00;100641.84;5112790;28;20056;-79
2023/07/10 03:43:26;;;;;;;11.10;7.50;;;;;;;16.84;100.00;100644.19;5119450;28;20031;-78
2023/07/10 03:45:53;;;;;;;9.45;7.40;;;;;;;16.83;100.00;100633.16;5120490;28;20110;-79
2023/07/10 03:48:21;;;;;;;11.82;8.32;;;;;;;16.92;100.00;100638.66;5120579;28;20027;-77
2023/07/10 03:50:47;;;;;;;13.38;8.07;;;;;;;16.95;100.00;100631.81;5117797;28;20061;-79
2023/07/10 03:53:14;;;;;;;13.10;8.32;;;;;;;16.98;100.00;100622.09;5114133;28;20028;-78
2023/07/10 03:55:52;;;;;;;14.10;8.35;;;;;;;17.00;100.00;100625.22;5112743;28;20032;-77
2023/07/10 03:58:25;;;;;;;9.18;6.90;;;;;;;16.98;100.00;100620.00;5112547;28;20032;-78
2023/07/10 04:00:52;;;;;;;14.27;8.55;;;;;;;16.99;100.00;100610.00;5112541;28;20038;-77
2023/07/10 04:03:31;;;;;;;12.98;7.85;;;;;;;17.00;100.00;100616.56;5112538;28;20069;-78
2023/07/10 04:05:59;;;;;;;13.27;7.85;;;;;;;16.98;100.00;100620.00;5113669;28;20365;-80
2023/07/10 04:08:41;;;;;;;10.73;7.78;;;;;;;16.98;100.00;100620.00;5095385;28;20460;-79
2023/07/10 04:11:13;;;;;;;;;;;;;;;16.98;100.00;100616.34;5113989;28;20039;-78
2023/07/10 04:13:40;;;;;;;9.65;7.40;;;;;;;17.01;100.00;100621.03;5112224;28;19915;-77
2023/07/10 04:16:11;;;;;;;12.52;7.15;;;;;;;16.96;100.00;100616.84;5095642;28;20070;-77
2023/07/10 04:18:47;;;;;;;12.53;7.53;;;;;;;17.02;100.00;100618.94;5113807;28;20038;-78
2023/07/10 04:21:29;;;;;;;17.13;7.85;;;;;;;16.92;100.00;100619.22;5114287;28;20396;-79
2023/07/10 04:23:58;;;;;;;27.83;9.05;;;;;;;16.81;100.00;100609.81;5112684;28;20023;-80
2023/07/10 04:26:27;;;;;;;33.42;10.15;;;;;;;16.81;100.00;100613.50;5112422;28;20091;-79
2023/07/10 04:28:55;;;;;;;22.80;8.73;;;;;;;17.02;100.00;100625.50;5113930;28;20157;-79
2023/07/10 04:31:21;;;;;;;19.75;8.13;;;;;;;17.16;100.00;100630.16;5095220;28;20393;-78
2023/07/10 04:33:48;;;;;;;18.83;9.35;;;;;;;17.31;100.00;100624.84;5113567;28;20028;-78
2023/07/10 04:36:14;;;;;;;12.38;8.20;;;;;;;17.33;100.00;100607.00;5112304;28;20036;-77
2023/07/10 04:38:40;;;;;;;19.90;8.80;;;;;;;17.57;100.00;100621.59;5113482;28;20039;-78
2023/07/10 04:41:09;;;;;;;13.80;8.20;;;;;;;17.62;100.00;100626.56;5112321;28;20027;-79
2023/07/10 04:43:35;;;;;;;18.88;8.35;;;;;;;17.60;100.00;100622.63;5112061;28;20035;-78
2023/07/10 04:46:03;;;;;;;9.48;7.63;;;;;;;17.69;100.00;100623.09;5113714;28;20039;-79
2023/07/10 04:48:29;;;;;;;17.63;8.00;;;;;;;17.75;100.00;100623.06;5099069;28;20039;-78
2023/07/10 04:50:57;;;;;;;10.20;7.43;;;;;;;17.82;100.00;100625.38;5116471;28;20112;-78
2023/07/10 04:53:24;;;;;;;13.93;8.30;;;;;;;17.86;100.00;100633.75;5116943;28;20032;-78
2023/07/10 04:55:52;;;;;;;18.88;8.45;;;;;;;17.91;100.00;100635.81;5098356;28;20445;-78
2023/07/10 04:58:28;;;;;;;11.80;7.93;;;;;;;18.01;100.00;100628.38;5114863;28;20034;-78
2023/07/10 05:01:03;;;;;;;14.82;8.88;;;;;;;17.95;100.00;100624.75;5115225;28;20084;-78
2023/07/10 05:03:29;;;;;;;13.30;8.20;;;;;;;18.05;100.00;100634.66;5116601;28;20030;-79
2023/07/10 05:06:06;;;;;;;13.40;7.72;;;;;;;18.18;100.00;100629.03;5114106;28;20088;-78
2023/07/10 05:08:46;;;;;;;14.48;9.02;;;;;;;18.62;100.00;100636.56;5099742;28;20036;-78
2023/07/10 05:11:12;;;;;;;10.93;8.05;;;;;;;19.06;100.00;100623.72;5116266;28;20067;-77
2023/07/10 05:13:38;;;;;;;8.90;8.00;;;;;;;19.53;100.00;100621.28;5114843;28;20043;-78
2023/07/10 05:16:05;;;;;;;10.95;9.00;;;;;;;19.96;100.00;100615.38;5115836;28;20558;-78
2023/07/10 05:18:30;;;;;;;12.10;9.13;;;;;;;20.26;100.00;100612.25;5115352;28;20038;-78
2023/07/10 05:20:58;;;;;;;12.40;8.75;;;;;;;20.57;100.00;100614.34;5114813;28;20102;-75
2023/07/10 05:23:24;;;;;;;14.18;9.35;;;;;;;20.82;100.00;100620.78;5116417;28;20016;-74
2023/07/10 05:25:58;;;;;;;12.80;9.52;;;;;;;20.88;100.00;100621.44;5116674;28;20038;-77
2023/07/10 05:28:39;;;;;;;12.85;8.90;;;;;;;20.89;100.00;100614.31;5115324;28;20042;-79
2023/07/10 05:31:06;;;;;;;18.00;9.27;;;;;;;20.95;100.00;100619.97;5117010;28;20040;-76
2023/07/10 05:33:32;;;;;;;10.73;8.75;;;;;;;21.02;100.00;100616.41;5116819;28;20424;-74
2023/07/10 05:35:59;;;;;;;11.77;8.57;;;;;;;21.16;100.00;100621.66;5114828;28;20031;-73
2023/07/10 05:38:41;;;;;;;10.43;8.77;;;;;;;21.38;100.00;100626.25;5114749;28;20058;-74
2023/07/10 05:41:09;;;;;;;30.30;10.00;;;;;;;21.34;100.00;100625.78;5097575;28;20028;-74
2023/07/10 05:43:35;;;;;;;11.90;8.57;;;;;;;21.40;100.00;100622.75;5114542;28;20034;-74
2023/07/10 05:46:01;;;;;;;12.35;8.95;;;;;;;21.59;100.00;100618.38;5098066;28;20031;-73
2023/07/10 05:48:28;;;;;;;16.25;8.93;;;;;;;21.92;100.00;100616.84;5114505;28;20111;-76
2023/07/10 05:50:54;;;;;;;12.80;8.85;;;;;;;22.22;100.00;100619.31;5114532;28;20033;-73
2023/07/10 05:53:21;;;;;;;12.18;8.82;;;;;;;22.33;100.00;100613.16;5113591;28;20454;-72
2023/07/10 05:55:48;;;;;;;11.05;8.35;;;;;;;22.53;100.00;100609.47;5111165;28;20032;-72
2023/07/10 05:58:16;;;;;;;10.85;8.15;;;;;;;22.71;100.00;100607.69;5114561;28;20028;-74
2023/07/10 06:00:45;;;;;;;11.88;9.05;;;;;;;22.87;100.00;100605.66;5097820;28;20032;-73
2023/07/10 06:03:12;;;;;;;13.13;9.25;;;;;;;23.02;100.00;100593.31;5114349;28;20084;-74
2023/07/10 06:05:56;;;;;;;14.00;9.32;;;;;;;23.26;100.00;100592.91;5114327;28;20046;-73
2023/07/10 06:08:24;;;;;;;12.05;8.75;;;;;;;23.43;100.00;100592.38;5115423;28;20526;-73
2023/07/10 06:10:50;;;;;;;13.55;9.32;;;;;;;23.13;100.00;100590.88;5114002;28;20070;-74
2023/07/10 06:13:16;;;;;;;10.32;9.07;;;;;;;22.85;100.00;100585.03;5114794;28;20042;-75
2023/07/10 06:15:43;;;;;;;10.23;8.85;;;;;;;22.51;100.00;100588.88;5112828;28;20035;-72
2023/07/10 06:18:08;;;;;;;11.38;9.50;;;;;;;22.23;100.00;100576.38;5113490;28;20031;-72
2023/07/10 06:20:33;;;;;;;40.58;10.90;;;;;;;22.10;100.00;100586.75;5096278;28;20061;-73
2023/07/10 06:23:00;;;;;;;32.83;11.10;;;;;;;22.00;100.00;100576.94;5114750;28;20015;-74
2023/07/10 06:25:31;;;;;;;28.70;10.35;;;;;;;22.05;100.00;100573.09;5114223;28;20388;-73
2023/07/10 06:27:57;;;;;;;14.98;9.05;;;;;;;22.15;100.00;100584.25;5113801;28;20027;-73
2023/07/10 06:30:23;;;;;;;12.07;9.18;;;;;;;22.13;100.00;100584.03;5112950;28;20042;-72
2023/07/10 06:32:50;;;;;;;17.50;9.68;;;;;;;22.03;100.00;100590.34;5113809;28;20404;-74
2023/07/10 06:35:19;;;;;;;10.77;9.13;;;;;;;21.96;100.00;100593.19;5112483;28;20023;-74
2023/07/10 06:37:45;;;;;;;13.73;9.52;;;;;;;21.92;100.00;100607.31;5113740;28;20034;-74
2023/07/10 06:40:18;;;;;;;13.88;9.68;;;;;;;21.93;100.00;100603.81;5113689;28;20031;-74
2023/07/10 06:42:45;;;;;;;25.70;10.80;;;;;;;21.92;100.00;100607.31;5114614;28;20030;-72
2023/07/10 06:45:25;;;;;;;16.13;10.18;;;;;;;21.97;100.00;100598.44;5114803;28;20035;-72
2023/07/10 06:47:59;;;;;;;46.75;11.50;;;;;;;21.93;100.00;100594.31;5113494;28;20049;-74
2023/07/10 06:50:25;;;;;;;21.02;9.88;;;;;;;21.85;100.00;100591.31;5114515;28;20556;-72
2023/07/10 06:52:53;;;;;;;15.48;10.40;;;;;;;21.83;100.00;100602.75;5096074;28;20042;-72
2023/07/10 06:55:18;;;;;;;17.20;9.88;;;;;;;21.84;100.00;100601.41;5113386;28;20032;-73
2023/07/10 06:57:43;;;;;;;28.77;10.18;;;;;;;21.90;100.00;100610.78;5113526;28;20080;-74
2023/07/10 07:00:17;;;;;;;23.50;9.88;;;;;;;22.05;100.00;100615.97;5114490;28;20052;-74
2023/07/10 07:02:44;;;;;;;28.90;9.35;;;;;;;22.30;100.00;100620.16;5114377;28;20035;-73
2023/07/10 07:05:11;;;;;;;15.10;7.43;;;;;;;22.65;100.00;100630.34;5112808;28;20499;-75
2023/07/10 07:07:38;;;;;;;12.48;9.20;;;;;;;22.99;100.00;100629.47;5114289;28;20383;-74
2023/07/10 07:10:14;;;;;;;14.13;9.05;;;;;;;23.32;100.00;100626.34;5113951;28;20143;-74
2023/07/10 07:12:55;;;;;;;14.35;8.70;;;;;;;23.60;100.00;100616.03;5113375;28;20032;-74
2023/07/10 07:15:22;;;;;;;16.40;9.02;;;;;;;23.89;100.00;100605.00;5114008;28;20027;-73
2023/07/10 07:17:47;;;;;;;11.45;8.23;;;;;;;24.15;100.00;100605.44;5114767;28;20114;-73
2023/07/10 07:20:14;;;;;;;12.20;8.57;;;;;;;24.46;100.00;100594.59;5114007;28;20145;-74
2023/07/10 07:22:41;;;;;;;13.75;7.85;;;;;;;25.12;100.00;100601.56;5114383;28;20028;-72
2023/07/10 07:25:08;;;;;;;16.38;7.60;;;;;;;26.25;100.00;100595.19;5095792;28;20114;-72
2023/07/10 07:27:34;;;;;;;9.27;7.70;;;;;;;27.44;100.00;100589.38;5114228;28;20076;-73
2023/07/10 07:30:04;;;;;;;10.20;7.22;;;;;;;28.25;92.84;100590.19;5110657;28;20046;-73
2023/07/10 07:32:30;;;;;;;16.48;7.90;;;;;;;28.85;92.94;100600.97;5112766;28;20047;-74
2023/07/10 07:34:55;;;;;;;11.52;8.23;;;;;;;29.31;85.26;100603.06;5113622;28;20031;-73
2023/07/10 07:37:21;;;;;;;9.80;7.20;;;;;;;29.43;82.27;100597.34;5114965;28;20058;-73
2023/07/10 07:39:48;;;;;;;15.63;7.82;;;;;;;29.34;79.32;100592.97;5134279;27;20383;-73
2023/07/10 07:42:16;;;;;;;11.65;8.15;;;;;;;28.98;79.11;100593.88;5134216;27;20487;-72
2023/07/10 07:44:41;;;;;;;10.30;6.82;;;;;;;28.78;80.71;100601.88;5133503;27;20098;-73
2023/07/10 07:47:07;;;;;;;20.63;7.78;;;;;;;28.71;81.25;100596.91;5098945;28;20134;-72
2023/07/10 07:49:33;;;;;;;12.13;6.38;;;;;;;28.92;83.29;100587.50;5133186;28;20087;-72
2023/07/10 07:52:00;;;;;;;11.57;6.78;;;;;;;29.21;75.53;100588.34;5132091;27;20035;-73
2023/07/10 07:54:26;;;;;;;9.57;6.97;;;;;;;29.43;77.05;100586.31;5133169;28;20047;-72
2023/07/10 07:56:52;;;;;;;8.73;6.38;;;;;;;29.69;75.99;100591.28;5127838;27;20031;-72
2023/07/10 07:59:19;;;;;;;12.82;6.82;;;;;;;29.81;69.95;100585.53;5113452;28;20032;-73
2023/07/10 08:01:46;;;;;;;8.82;7.45;;;;;;;29.83;71.53;100585.66;5112510;28;20119;-73
2023/07/10 08:04:11;;;;;;;8.95;7.10;;;;;;;29.84;71.70;100586.44;5112991;28;20047;-74
2023/07/10 08:06:37;;;;;;;9.90;6.80;;;;;;;29.76;70.48;100583.69;5113859;28;20058;-73
2023/07/10 08:09:04;;;;;;;13.23;6.13;;;;;;;29.58;71.52;100591.13;5112284;28;20038;-71
2023/07/10 08:11:29;;;;;;;9.35;6.88;;;;;;;29.25;71.71;100588.66;5113366;28;20078;-71
2023/07/10 08:13:55;;;;;;;11.00;6.60;;;;;;;29.11;71.94;100580.88;5112243;28;20465;-74
2023/07/10 08:16:21;;;;;;;13.05;6.32;;;;;;;29.00;72.80;100591.06;5113666;28;20121;-72
2023/07/10 08:18:48;;;;;;;8.10;6.28;;;;;;;28.90;69.94;100578.50;5113350;28;20038;-73
2023/07/10 08:21:14;;;;;;;8.27;6.30;;;;;;;28.80;72.27;100566.72;5098961;28;20036;-73
2023/07/10 08:23:40;;;;;;;17.70;7.18;;;;;;;28.79;70.39;100567.34;5116415;28;20376;-74
2023/07/10 08:26:07;;;;;;;18.75;7.13;;;;;;;28.77;73.11;100561.31;5117659;28;20102;-71
2023/07/10 08:28:35;;;;;;;14.88;6.20;;;;;;;28.91;73.81;100567.50;5116196;28;20050;-72
2023/07/10 08:31:01;;;;;;;12.95;6.15;;;;;;;29.20;71.34;100574.22;5117577;28;20028;-72
2023/07/10 08:33:28;;;;;;;12.68;5.68;;;;;;;29.61;64.39;100578.13;5116038;28;20035;-73
2023/07/10 08:35:58;;;;;;;10.05;5.32;;;;;;;29.82;60.24;100584.13;5098996;28;20369;-74
2023/07/10 08:38:24;;;;;;;9.70;5.23;;;;;;;30.04;60.54;100588.72;5117226;28;20027;-74
2023/07/10 08:40:54;;;;;;;7.93;5.40;;;;;;;30.28;57.49;100583.06;5117271;28;20031;-75
2023/07/10 08:43:31;;;;;;;7.57;5.22;;;;;;;30.70;56.26;100600.91;5115924;28;20035;-73
2023/07/10 08:46:02;;;;;;;8.52;5.03;;;;;;;31.18;54.79;100599.84;5116028;28;20027;-71
2023/07/10 08:48:44;;;;;;;5.38;4.85;;;;;;;31.61;50.07;100607.25;5117237;28;20024;-73
2023/07/10 08:51:16;;;;;;;5.95;4.97;;;;;;;31.85;51.06;100607.38;5116942;28;20529;-74
2023/07/10 08:53:46;;;;;;;6.65;5.30;;;;;;;31.90;49.46;100609.16;5115566;28;20028;-73
2023/07/10 08:56:21;;;;;;;9.63;5.38;;;;;;;31.78;48.71;100609.16;5115703;28;20034;-74
2023/07/10 08:58:47;;;;;;;12.60;5.20;;;;;;;31.38;49.94;100610.88;5117027;28;20028;-75
2023/07/10 09:01:41;;;;;;;8.65;5.10;;;;;;;30.92;51.74;100614.28;5116799;28;20375;-74
2023/07/10 09:04:12;;;;;;;9.18;5.30;;;;;;;30.63;50.89;100615.81;5113220;28;20036;-74
2023/07/10 09:06:46;;;;;;;7.35;4.95;;;;;;;30.37;52.81;100627.28;5117001;28;20149;-76
2023/07/10 09:09:41;;;;;;;8.50;5.47;;;;;;;29.99;57.14;100639.94;5116395;28;20027;-73
2023/07/10 09:12:46;;;;;;;10.27;5.43;;;;;;;28.90;64.65;100657.97;5115151;28;20044;-75
2023/07/10 09:15:16;;;;;;;22.23;7.00;;;;;;;28.35;63.68;100656.47;5107267;28;20050;-74
2023/07/10 09:18:03;;;;;;;9.45;6.05;;;;;;;28.21;67.54;100675.13;5116424;28;20020;-74
2023/07/10 09:20:29;;;;;;;31.98;7.03;;;;;;;28.08;68.46;100684.31;5116635;28;20030;-73
2023/07/10 09:23:04;;;;;;;11.90;5.53;;;;;;;27.83;73.07;100676.41;5114875;28;20422;-73
2023/07/10 09:25:30;;;;;;;6.05;5.43;;;;;;;27.77;73.75;100696.44;5116161;28;20494;-72
2023/07/10 09:27:56;;;;;;;14.15;6.20;;;;;;;27.64;74.00;100682.13;5097846;28;20114;-73
2023/07/10 09:30:27;;;;;;;9.18;5.88;;;;;;;27.38;77.44;100677.72;5115786;28;20127;-73
2023/07/10 09:33:00;;;;;;;24.52;6.93;;;;;;;27.11;76.80;100662.88;5114564;28;20474;-74
2023/07/10 09:35:26;;;;;;;21.67;6.13;;;;;;;27.14;78.40;100647.03;5115051;28;20034;-73
2023/07/10 09:37:53;;;;;;;11.90;6.35;;;;;;;27.27;78.62;100663.50;5115833;27;20024;-74
2023/07/10 09:40:23;;;;;;;11.85;6.07;;;;;;;27.42;78.42;100660.44;5115955;28;20039;-73
2023/07/10 09:42:50;;;;;;;9.60;5.60;;;;;;;27.46;79.27;100657.06;5115681;28;20073;-75
2023/07/10 09:45:17;;;;;;;8.27;5.43;;;;;;;27.44;75.85;100662.78;5114638;28;20063;-72
2023/07/10 09:47:47;;;;;;;15.48;5.80;;;;;;;27.49;70.72;100659.59;5115998;27;20038;-74
2023/07/10 09:50:15;;;;;;;13.77;6.15;;;;;;;27.16;78.05;100650.09;5114417;28;20468;-73
2023/07/10 09:52:41;;;;;;;11.80;6.20;;;;;;;27.11;78.35;100642.34;5115619;28;20027;-74
2023/07/10 09:55:15;;;;;;;11.60;5.63;;;;;;;27.28;76.86;100634.94;5114325;28;20110;-74
2023/07/10 09:57:59;;;;;;;14.55;6.60;;;;;;;27.43;73.77;100631.84;5114286;28;20038;-74
2023/07/10 10:00:27;;;;;;;10.32;6.18;;;;;;;27.44;71.78;100624.59;5115500;28;20059;-75
2023/07/10 10:02:56;;;;;;;8.45;5.97;;;;;;;27.35;69.70;100622.38;5114152;28;20084;-75
2023/07/10 10:05:23;;;;;;;10.57;6.03;;;;;;;27.14;72.85;100616.88;5115702;28;20087;-73
2023/07/10 10:07:51;;;;;;;16.90;6.65;;;;;;;27.04;77.50;100618.94;5115458;28;20023;-77
2023/07/10 10:10:23;;;;;;;20.67;6.70;;;;;;;27.00;81.13;100612.75;5114007;28;20138;-76
2023/07/10 10:12:54;;;;;;;13.07;6.22;;;;;;;26.95;83.24;100594.00;5115127;28;20032;-74
2023/07/10 10:15:40;;;;;;;10.35;6.30;;;;;;;26.86;83.40;100571.22;5113729;28;20058;-75
2023/07/10 10:18:16;;;;;;;8.95;6.40;;;;;;;26.73;84.88;100542.22;5114686;27;20361;-74
2023/07/10 10:20:42;;;;;;;14.05;6.28;;;;;;;26.65;85.23;100544.44;5115411;28;20468;-76
2023/07/10 10:23:32;;;;;;;11.05;5.40;;;;;;;26.58;89.15;100537.25;5115245;28;20027;-75
2023/07/10 10:26:19;;;;;;;14.15;6.60;;;;;;;26.51;87.05;100499.22;5115223;28;20042;-74
2023/07/10 10:29:29;;;;;;;14.93;6.22;;;;;;;26.10;88.13;100483.94;5114925;28;20104;-74
2023/07/10 10:32:18;;;;;;;10.30;6.38;;;;;;;25.82;89.27;100479.28;5103841;28;20115;-74
2023/07/10 10:35:05;;;;;;;11.43;6.30;;;;;;;25.85;89.55;100483.16;5113478;28;20038;-74
2023/07/10 10:38:01;;;;;;;14.55;7.13;;;;;;;25.95;91.41;100486.22;5114750;28;20031;-75
2023/07/10 10:40:40;;;;;;;10.18;6.38;;;;;;;25.82;90.96;100493.94;5115015;28;20069;-74
2023/07/10 10:43:34;;;;;;;17.35;7.28;;;;;;;25.91;90.74;100489.56;5095878;28;20027;-76
2023/07/10 10:46:12;;;;;;;11.75;6.15;;;;;;;26.07;89.74;100493.16;5114901;28;20020;-75
2023/07/10 10:49:07;;;;;;;8.90;6.00;;;;;;;26.30;89.02;100496.69;5114611;28;20372;-76
2023/07/10 10:51:37;;;;;;;10.80;6.20;;;;;;;26.54;88.77;100492.16;5114641;28;20027;-77
2023/07/10 10:54:13;;;;;;;16.30;7.00;;;;;;;26.73;91.72;100495.28;5113214;28;20048;-76
2023/07/10 10:56:46;;;;;;;24.13;7.75;;;;;;;26.80;89.51;100487.81;5114305;28;20781;-75
2023/07/10 10:59:32;;;;;;;10.55;6.30;;;;;;;26.98;88.92;100492.25;5114730;28;20068;-77
2023/07/10 11:02:12;;;;;;;7.97;5.88;;;;;;;27.24;87.05;100490.78;5114615;28;20027;-75
2023/07/10 11:04:45;;;;;;;14.45;6.05;;;;;;;27.34;82.48;100497.53;5114805;28;20024;-76
2023/07/10 11:07:29;;;;;;;9.60;6.35;;;;;;;27.19;84.23;100495.53;5113558;28;20027;-75
2023/07/10 11:09:59;;;;;;;8.85;6.15;;;;;;;27.36;81.60;100500.59;5112849;28;20032;-75
2023/07/10 11:12:28;;;;;;;13.40;6.40;;;;;;;27.52;82.54;100501.94;5113167;28;20023;-75
2023/07/10 11:15:19;;;;;;;12.77;6.38;;;;;;;27.75;74.05;100502.38;5113541;28;20040;-78
2023/07/10 11:17:47;;;;;;;11.60;6.07;;;;;;;27.92;72.69;100499.41;5105304;28;20079;-77
2023/07/10 11:20:14;;;;;;;11.65;6.72;;;;;;;28.16;70.26;100499.81;5113102;28;20066;-76
2023/07/10 11:23:02;;;;;;;13.90;6.38;;;;;;;28.37;71.36;100483.16;5095956;28;20031;-75
2023/07/10 11:25:39;;;;;;;7.93;5.72;;;;;;;28.66;66.21;100492.06;5113941;28;20464;-76
2023/07/10 11:28:24;;;;;;;11.07;5.88;;;;;;;28.91;67.33;100488.06;5112844;28;20106;-76
2023/07/10 11:31:34;;;;;;;12.20;6.50;;;;;;;29.02;63.50;100484.53;5095991;28;20038;-76
2023/07/10 11:34:02;;;;;;;13.93;6.57;;;;;;;28.99;62.03;100488.66;5113804;28;20028;-76